sensor_id;sensor_type;location;lat;lon;timestamp;pressure;altitude;pressure_sealevel;temperature;humidity
38054;BME280;23859;50.672;7.164;2024-03-02T00:00:26;35984.50;;;-140.95;61.72
38054;BME280;23859;50.672;7.164;2024-03-02T00:02:53;35980.50;;;-140.95;61.81
38054;BME280;23859;50.672;7.164;2024-03-02T00:05:21;35986.53;;;-140.95;61.12
38054;BME280;23859;50.672;7.164;2024-03-02T00:07:57;35964.41;;;-140.95;61.03
38054;BME280;23859;50.672;7.164;2024-03-02T00:10:26;35998.56;;;-140.95;60.84
38054;BME280;23859;50.672;7.164;2024-03-02T00:12:57;35984.50;;;-140.95;60.49
38054;BME280;23859;50.672;7.164;2024-03-02T00:15:53;35964.41;;;-140.95;60.45
38054;BME280;23859;50.672;7.164;2024-03-02T00:18:30;35988.53;;;-140.95;60.73
38054;BME280;23859;50.672;7.164;2024-03-02T00:20:57;35972.44;;;-140.95;60.21
38054;BME280;23859;50.672;7.164;2024-03-02T00:23:24;35968.44;;;-140.95;59.86
38054;BME280;23859;50.672;7.164;2024-03-02T00:25:53;35976.47;;;-140.95;60.32
38054;BME280;23859;50.672;7.164;2024-03-02T00:28:24;35968.44;;;-140.95;60.15
38054;BME280;23859;50.672;7.164;2024-03-02T00:33:20;35964.41;;;-140.95;59.86
38054;BME280;23859;50.672;7.164;2024-03-02T00:35:47;35972.44;;;-140.95;59.63
38054;BME280;23859;50.672;7.164;2024-03-02T00:38:14;35936.28;;;-140.95;59.36
38054;BME280;23859;50.672;7.164;2024-03-02T00:40:44;35960.41;;;-140.95;59.46
38054;BME280;23859;50.672;7.164;2024-03-02T00:46:21;35948.34;;;-140.95;59.73
38054;BME280;23859;50.672;7.164;2024-03-02T00:48:56;35952.34;;;-140.95;59.76
38054;BME280;23859;50.672;7.164;2024-03-02T00:51:24;36470.78;;;-140.95;60.16
38054;BME280;23859;50.672;7.164;2024-03-02T00:53:52;35988.53;;;-140.95;60.10
38054;BME280;23859;50.672;7.164;2024-03-02T00:56:18;36026.69;;;-140.95;59.99
38054;BME280;23859;50.672;7.164;2024-03-02T00:58:45;36004.59;;;-140.95;60.23
38054;BME280;23859;50.672;7.164;2024-03-02T01:01:11;35988.53;;;-140.95;60.37
38054;BME280;23859;50.672;7.164;2024-03-02T01:03:37;36010.63;;;-140.95;60.22
38054;BME280;23859;50.672;7.164;2024-03-02T01:06:04;35972.44;;;-140.95;60.19
38054;BME280;23859;50.672;7.164;2024-03-02T01:08:30;36014.66;;;-140.95;60.08
38054;BME280;23859;50.672;7.164;2024-03-02T01:10:56;35988.53;;;-140.95;59.84
38054;BME280;23859;50.672;7.164;2024-03-02T01:13:23;35996.56;;;-140.95;60.19
38054;BME280;23859;50.672;7.164;2024-03-02T01:15:49;36008.63;;;-140.95;60.10
38054;BME280;23859;50.672;7.164;2024-03-02T01:18:16;35960.41;;;-140.95;60.01
38054;BME280;23859;50.672;7.164;2024-03-02T01:20:42;36032.72;;;-140.95;59.75
38054;BME280;23859;50.672;7.164;2024-03-02T01:23:08;35992.53;;;-140.95;60.02
38054;BME280;23859;50.672;7.164;2024-03-02T01:25:34;36006.59;;;-140.95;60.07
38054;BME280;23859;50.672;7.164;2024-03-02T01:28:00;36008.63;;;-140.95;60.25
38054;BME280;23859;50.672;7.164;2024-03-02T01:30:26;36004.59;;;-140.95;60.13
38054;BME280;23859;50.672;7.164;2024-03-02T01:32:52;36024.69;;;-140.95;59.90
38054;BME280;23859;50.672;7.164;2024-03-02T01:35:18;36040.78;;;-140.95;60.20
38054;BME280;23859;50.672;7.164;2024-03-02T01:37:44;35990.53;;;-140.95;59.97
38054;BME280;23859;50.672;7.164;2024-03-02T01:40:11;35992.53;;;-140.95;60.16
38054;BME280;23859;50.672;7.164;2024-03-02T01:42:40;36030.72;;;-140.95;60.17
38054;BME280;23859;50.672;7.164;2024-03-02T01:45:07;36004.59;;;-140.95;60.01
38054;BME280;23859;50.672;7.164;2024-03-02T01:47:34;35988.53;;;-140.95;60.10
38054;BME280;23859;50.672;7.164;2024-03-02T01:50:00;35976.47;;;-140.95;59.41
38054;BME280;23859;50.672;7.164;2024-03-02T01:52:27;36012.63;;;-140.95;59.20
38054;BME280;23859;50.672;7.164;2024-03-02T01:54:53;36008.63;;;-140.95;59.75
38054;BME280;23859;50.672;7.164;2024-03-02T01:57:19;35972.44;;;-140.95;59.32
38054;BME280;23859;50.672;7.164;2024-03-02T01:59:46;36024.69;;;-140.95;58.96
38054;BME280;23859;50.672;7.164;2024-03-02T02:02:16;36012.63;;;-140.95;59.57
38054;BME280;23859;50.672;7.164;2024-03-02T02:04:42;35976.47;;;-140.95;59.79
38054;BME280;23859;50.672;7.164;2024-03-02T02:07:09;35994.56;;;-140.95;59.49
38054;BME280;23859;50.672;7.164;2024-03-02T02:09:36;35976.47;;;-140.95;59.65
38054;BME280;23859;50.672;7.164;2024-03-02T02:12:02;36000.59;;;-140.95;59.84
38054;BME280;23859;50.672;7.164;2024-03-02T02:14:30;36006.59;;;-140.95;59.99
38054;BME280;23859;50.672;7.164;2024-03-02T02:16:56;36042.78;;;-140.95;59.84
38054;BME280;23859;50.672;7.164;2024-03-02T02:19:22;35992.53;;;-140.95;59.97
38054;BME280;23859;50.672;7.164;2024-03-02T02:21:48;36006.59;;;-140.95;60.65
38054;BME280;23859;50.672;7.164;2024-03-02T02:24:14;36026.69;;;-140.95;60.76
38054;BME280;23859;50.672;7.164;2024-03-02T02:26:40;36036.75;;;-140.95;60.86
38054;BME280;23859;50.672;7.164;2024-03-02T02:29:06;36044.78;;;-140.95;60.83
38054;BME280;23859;50.672;7.164;2024-03-02T02:31:41;36018.66;;;-140.95;60.73
38054;BME280;23859;50.672;7.164;2024-03-02T02:34:08;36072.91;;;-140.95;61.10
38054;BME280;23859;50.672;7.164;2024-03-02T02:36:38;36058.84;;;-140.95;61.42
38054;BME280;23859;50.672;7.164;2024-03-02T02:39:07;36034.75;;;-140.95;61.58
38054;BME280;23859;50.672;7.164;2024-03-02T02:41:36;36038.75;;;-140.95;61.92
38054;BME280;23859;50.672;7.164;2024-03-02T02:44:02;36040.78;;;-140.95;62.02
38054;BME280;23859;50.672;7.164;2024-03-02T02:46:28;36048.81;;;-140.95;61.52
38054;BME280;23859;50.672;7.164;2024-03-02T02:48:54;36020.69;;;-140.95;61.83
38054;BME280;23859;50.672;7.164;2024-03-02T02:51:20;36016.66;;;-140.95;61.53
38054;BME280;23859;50.672;7.164;2024-03-02T02:53:49;36052.81;;;-140.95;62.15
38054;BME280;23859;50.672;7.164;2024-03-02T02:56:15;36048.81;;;-140.95;61.92
38054;BME280;23859;50.672;7.164;2024-03-02T02:58:41;36052.81;;;-140.95;62.42
38054;BME280;23859;50.672;7.164;2024-03-02T03:01:07;36084.97;;;-140.95;62.68
38054;BME280;23859;50.672;7.164;2024-03-02T03:03:34;36060.88;;;-140.95;62.90
38054;BME280;23859;50.672;7.164;2024-03-02T03:06:00;36046.78;;;-140.95;63.22
38054;BME280;23859;50.672;7.164;2024-03-02T03:08:26;36048.81;;;-140.95;63.31
38054;BME280;23859;50.672;7.164;2024-03-02T03:10:52;36026.69;;;-140.95;63.00
38054;BME280;23859;50.672;7.164;2024-03-02T03:13:18;36072.91;;;-140.95;62.98
38054;BME280;23859;50.672;7.164;2024-03-02T03:15:44;36056.84;;;-140.95;62.70
38054;BME280;23859;50.672;7.164;2024-03-02T03:18:10;36042.78;;;-140.95;62.63
38054;BME280;23859;50.672;7.164;2024-03-02T03:20:36;36028.72;;;-140.95;62.16
38054;BME280;23859;50.672;7.164;2024-03-02T03:23:03;36028.72;;;-140.95;62.38
38054;BME280;23859;50.672;7.164;2024-03-02T03:25:30;36074.94;;;-140.95;62.37
38054;BME280;23859;50.672;7.164;2024-03-02T03:27:56;36046.78;;;-140.95;62.57
38054;BME280;23859;50.672;7.164;2024-03-02T03:30:23;36056.84;;;-140.95;62.81
38054;BME280;23859;50.672;7.164;2024-03-02T03:32:49;36048.81;;;-140.95;63.00
38054;BME280;23859;50.672;7.164;2024-03-02T03:35:15;36064.88;;;-140.95;63.14
38054;BME280;23859;50.672;7.164;2024-03-02T03:37:41;36040.78;;;-140.95;62.89
38054;BME280;23859;50.672;7.164;2024-03-02T03:40:08;36058.84;;;-140.95;62.92
38054;BME280;23859;50.672;7.164;2024-03-02T03:42:37;36093.00;;;-140.95;62.32
38054;BME280;23859;50.672;7.164;2024-03-02T03:45:05;36089.00;;;-140.95;61.88
38054;BME280;23859;50.672;7.164;2024-03-02T03:47:34;36004.59;;;-140.95;61.53
38054;BME280;23859;50.672;7.164;2024-03-02T03:50:00;36064.88;;;-140.95;61.65
38054;BME280;23859;50.672;7.164;2024-03-02T03:52:26;36016.66;;;-140.95;61.17
38054;BME280;23859;50.672;7.164;2024-03-02T03:54:52;36012.63;;;-140.95;61.27
38054;BME280;23859;50.672;7.164;2024-03-02T03:57:18;36026.69;;;-140.95;60.75
38054;BME280;23859;50.672;7.164;2024-03-02T03:59:44;36024.69;;;-140.95;60.82
38054;BME280;23859;50.672;7.164;2024-03-02T04:02:12;36010.63;;;-140.95;60.58
38054;BME280;23859;50.672;7.164;2024-03-02T04:04:38;36030.72;;;-140.95;61.02
38054;BME280;23859;50.672;7.164;2024-03-02T04:07:04;36020.69;;;-140.95;61.27
38054;BME280;23859;50.672;7.164;2024-03-02T04:09:30;36032.72;;;-140.95;61.57
38054;BME280;23859;50.672;7.164;2024-03-02T04:11:56;36064.88;;;-140.95;62.19
38054;BME280;23859;50.672;7.164;2024-03-02T04:14:22;36040.78;;;-140.95;62.63
38054;BME280;23859;50.672;7.164;2024-03-02T04:16:48;36044.78;;;-140.95;62.42
38054;BME280;23859;50.672;7.164;2024-03-02T04:19:14;36060.88;;;-140.95;62.78
38054;BME280;23859;50.672;7.164;2024-03-02T04:21:40;36040.78;;;-140.95;63.43
38054;BME280;23859;50.672;7.164;2024-03-02T04:24:06;36054.84;;;-140.95;63.46
38054;BME280;23859;50.672;7.164;2024-03-02T04:26:32;36044.78;;;-140.95;64.10
38054;BME280;23859;50.672;7.164;2024-03-02T04:28:58;36054.84;;;-140.95;64.07
38054;BME280;23859;50.672;7.164;2024-03-02T04:31:24;36060.88;;;-140.95;64.54
38054;BME280;23859;50.672;7.164;2024-03-02T04:33:50;36070.91;;;-140.95;64.30
38054;BME280;23859;50.672;7.164;2024-03-02T04:36:17;36048.81;;;-140.95;63.99
38054;BME280;23859;50.672;7.164;2024-03-02T04:38:43;36070.91;;;-140.95;64.61
38054;BME280;23859;50.672;7.164;2024-03-02T04:41:09;36056.84;;;-140.95;64.70
38054;BME280;23859;50.672;7.164;2024-03-02T04:43:35;36068.91;;;-140.95;65.65
38054;BME280;23859;50.672;7.164;2024-03-02T04:46:01;36060.88;;;-140.95;65.42
38054;BME280;23859;50.672;7.164;2024-03-02T04:48:27;36052.81;;;-140.95;64.95
38054;BME280;23859;50.672;7.164;2024-03-02T04:50:54;36093.00;;;-140.95;65.43
38054;BME280;23859;50.672;7.164;2024-03-02T04:53:20;36040.78;;;-140.95;65.23
38054;BME280;23859;50.672;7.164;2024-03-02T04:55:46;36044.78;;;-140.95;64.69
38054;BME280;23859;50.672;7.164;2024-03-02T04:58:31;36064.88;;;-140.95;63.95
38054;BME280;23859;50.672;7.164;2024-03-02T05:00:58;36046.78;;;-140.95;63.53
38054;BME280;23859;50.672;7.164;2024-03-02T05:03:24;36054.84;;;-140.95;63.24
38054;BME280;23859;50.672;7.164;2024-03-02T05:05:50;36022.69;;;-140.95;63.22
38054;BME280;23859;50.672;7.164;2024-03-02T05:08:16;36032.72;;;-140.95;63.36
38054;BME280;23859;50.672;7.164;2024-03-02T05:10:42;36040.78;;;-140.95;63.69
38054;BME280;23859;50.672;7.164;2024-03-02T05:13:08;36080.97;;;-140.95;63.74
38054;BME280;23859;50.672;7.164;2024-03-02T05:15:35;36034.75;;;-140.95;63.69
38054;BME280;23859;50.672;7.164;2024-03-02T05:18:01;36038.75;;;-140.95;63.47
38054;BME280;23859;50.672;7.164;2024-03-02T05:20:30;36040.78;;;-140.95;63.03
38054;BME280;23859;50.672;7.164;2024-03-02T05:22:57;36032.72;;;-140.95;62.62
38054;BME280;23859;50.672;7.164;2024-03-02T05:25:23;36028.72;;;-140.95;62.85
38054;BME280;23859;50.672;7.164;2024-03-02T05:27:49;36070.91;;;-140.95;62.97
38054;BME280;23859;50.672;7.164;2024-03-02T05:30:15;36297.97;;;-140.95;62.76
38054;BME280;23859;50.672;7.164;2024-03-02T05:32:41;36060.88;;;-140.95;62.17
38054;BME280;23859;50.672;7.164;2024-03-02T05:35:07;36064.88;;;-140.95;62.76
38054;BME280;23859;50.672;7.164;2024-03-02T05:37:34;36052.81;;;-140.95;62.96
38054;BME280;23859;50.672;7.164;2024-03-02T05:40:00;36084.97;;;-140.95;62.77
38054;BME280;23859;50.672;7.164;2024-03-02T05:42:26;36066.88;;;-140.95;63.03
38054;BME280;23859;50.672;7.164;2024-03-02T05:44:52;36064.88;;;-140.95;63.48
38054;BME280;23859;50.672;7.164;2024-03-02T05:47:19;36105.06;;;-140.95;63.55
38054;BME280;23859;50.672;7.164;2024-03-02T05:49:45;36080.97;;;-140.95;63.83
38054;BME280;23859;50.672;7.164;2024-03-02T05:52:11;36078.94;;;-140.95;64.63
38054;BME280;23859;50.672;7.164;2024-03-02T05:54:38;36093.00;;;-140.95;65.15
38054;BME280;23859;50.672;7.164;2024-03-02T05:57:04;36060.88;;;-140.95;65.08
38054;BME280;23859;50.672;7.164;2024-03-02T05:59:52;36068.91;;;-140.95;65.26
38054;BME280;23859;50.672;7.164;2024-03-02T06:02:18;36117.13;;;-140.95;65.35
38054;BME280;23859;50.672;7.164;2024-03-02T06:04:44;36072.91;;;-140.95;65.07
38054;BME280;23859;50.672;7.164;2024-03-02T06:07:10;36064.88;;;-140.95;64.87
38054;BME280;23859;50.672;7.164;2024-03-02T06:09:36;36052.81;;;-140.95;64.50
38054;BME280;23859;50.672;7.164;2024-03-02T06:12:03;36334.13;;;-140.95;64.60
38054;BME280;23859;50.672;7.164;2024-03-02T06:14:30;36097.03;;;-140.95;64.80
38054;BME280;23859;50.672;7.164;2024-03-02T06:16:56;36072.91;;;-140.95;64.74
38054;BME280;23859;50.672;7.164;2024-03-02T06:19:22;36060.88;;;-140.95;64.78
38054;BME280;23859;50.672;7.164;2024-03-02T06:21:48;36093.00;;;-140.95;64.71
38054;BME280;23859;50.672;7.164;2024-03-02T06:24:14;36107.06;;;-140.95;64.46
38054;BME280;23859;50.672;7.164;2024-03-02T06:26:40;36093.00;;;-140.95;63.99
38054;BME280;23859;50.672;7.164;2024-03-02T06:29:06;36064.88;;;-140.95;64.26
38054;BME280;23859;50.672;7.164;2024-03-02T06:31:33;36048.81;;;-140.95;63.88
38054;BME280;23859;50.672;7.164;2024-03-02T06:33:59;36062.88;;;-140.95;64.00
38054;BME280;23859;50.672;7.164;2024-03-02T06:36:25;36068.91;;;-140.95;64.54
38054;BME280;23859;50.672;7.164;2024-03-02T06:38:51;36076.94;;;-140.95;64.65
38054;BME280;23859;50.672;7.164;2024-03-02T06:41:17;36070.91;;;-140.95;64.51
38054;BME280;23859;50.672;7.164;2024-03-02T06:43:43;36058.84;;;-140.95;64.19
38054;BME280;23859;50.672;7.164;2024-03-02T06:46:09;36070.91;;;-140.95;64.02
38054;BME280;23859;50.672;7.164;2024-03-02T06:48:35;36048.81;;;-140.95;64.05
38054;BME280;23859;50.672;7.164;2024-03-02T06:51:01;36089.00;;;-140.95;64.02
38054;BME280;23859;50.672;7.164;2024-03-02T06:53:27;36072.91;;;-140.95;63.80
38054;BME280;23859;50.672;7.164;2024-03-02T06:55:54;36060.88;;;-140.95;64.04
38054;BME280;23859;50.672;7.164;2024-03-02T06:58:20;36044.78;;;-140.95;63.76
38054;BME280;23859;50.672;7.164;2024-03-02T07:00:46;36054.84;;;-140.95;63.50
38054;BME280;23859;50.672;7.164;2024-03-02T07:03:13;36024.69;;;-140.95;63.28
38054;BME280;23859;50.672;7.164;2024-03-02T07:05:39;36012.63;;;-140.95;62.27
38054;BME280;23859;50.672;7.164;2024-03-02T07:08:06;36024.69;;;-140.95;62.45
38054;BME280;23859;50.672;7.164;2024-03-02T07:10:32;36008.63;;;-140.95;61.94
38054;BME280;23859;50.672;7.164;2024-03-02T07:12:58;36020.69;;;-140.95;61.46
38054;BME280;23859;50.672;7.164;2024-03-02T07:15:24;35992.53;;;-140.95;61.40
38054;BME280;23859;50.672;7.164;2024-03-02T07:17:53;35960.41;;;-140.95;61.08
38054;BME280;23859;50.672;7.164;2024-03-02T07:20:19;35962.41;;;-140.95;60.74
38054;BME280;23859;50.672;7.164;2024-03-02T07:22:45;35908.16;;;-140.95;59.62
38054;BME280;23859;50.672;7.164;2024-03-02T07:25:11;35902.13;;;-140.95;57.56
38054;BME280;23859;50.672;7.164;2024-03-02T07:27:37;35821.75;;;-140.95;55.73
38054;BME280;23859;50.672;7.164;2024-03-02T07:30:04;35771.53;;;-140.95;53.47
38054;BME280;23859;50.672;7.164;2024-03-02T07:32:30;35966.44;;;-140.95;54.11
38054;BME280;23859;50.672;7.164;2024-03-02T07:34:56;35743.41;;;-140.95;52.34
38054;BME280;23859;50.672;7.164;2024-03-02T07:37:23;35743.41;;;-140.95;51.50
38054;BME280;23859;50.672;7.164;2024-03-02T07:39:50;35667.06;;;-140.95;49.85
38054;BME280;23859;50.672;7.164;2024-03-02T07:42:16;35683.13;;;-140.95;49.16
38054;BME280;23859;50.672;7.164;2024-03-02T07:44:43;35687.16;;;-140.95;49.51
38054;BME280;23859;50.672;7.164;2024-03-02T07:47:10;35775.56;;;-140.95;51.38
38054;BME280;23859;50.672;7.164;2024-03-02T07:49:36;35749.44;;;-140.95;51.60
38054;BME280;23859;50.672;7.164;2024-03-02T07:52:02;35795.63;;;-140.95;53.08
38054;BME280;23859;50.672;7.164;2024-03-02T07:54:28;35837.84;;;-140.95;54.30
38054;BME280;23859;50.672;7.164;2024-03-02T07:56:54;35912.19;;;-140.95;55.62
38054;BME280;23859;50.672;7.164;2024-03-02T07:59:20;35865.97;;;-140.95;56.17
38054;BME280;23859;50.672;7.164;2024-03-02T08:01:48;35781.56;;;-140.95;54.86
38054;BME280;23859;50.672;7.164;2024-03-02T08:04:14;35737.38;;;-140.95;51.88
38054;BME280;23859;50.672;7.164;2024-03-02T08:06:40;35655.00;;;-140.95;49.48
38054;BME280;23859;50.672;7.164;2024-03-02T08:09:06;35596.75;;;-140.95;47.89
38054;BME280;23859;50.672;7.164;2024-03-02T08:11:36;35655.00;;;-140.95;47.44
38054;BME280;23859;50.672;7.164;2024-03-02T08:14:03;35630.91;;;-140.95;47.81
38054;BME280;23859;50.672;7.164;2024-03-02T08:16:29;35600.75;;;-140.95;47.54
38054;BME280;23859;50.672;7.164;2024-03-02T08:18:55;35550.53;;;-140.95;47.31
38054;BME280;23859;50.672;7.164;2024-03-02T08:21:24;35552.53;;;-140.95;46.41
38054;BME280;23859;50.672;7.164;2024-03-02T08:23:50;35522.41;;;-140.95;44.44
38054;BME280;23859;50.672;7.164;2024-03-02T08:26:16;35570.63;;;-140.95;44.89
38054;BME280;23859;50.672;7.164;2024-03-02T08:28:42;35502.31;;;-140.95;44.46
38054;BME280;23859;50.672;7.164;2024-03-02T08:31:09;35522.41;;;-140.95;44.36
38054;BME280;23859;50.672;7.164;2024-03-02T08:33:35;35484.22;;;-140.95;44.07
38054;BME280;23859;50.672;7.164;2024-03-02T08:36:01;35526.41;;;-140.95;43.81
38054;BME280;23859;50.672;7.164;2024-03-02T08:38:28;35508.34;;;-140.95;43.72
38054;BME280;23859;50.672;7.164;2024-03-02T08:40:55;35474.19;;;-140.95;43.88
38054;BME280;23859;50.672;7.164;2024-03-02T08:43:21;35494.28;;;-140.95;43.78
38054;BME280;23859;50.672;7.164;2024-03-02T08:45:48;35438.03;;;-140.95;43.68
38054;BME280;23859;50.672;7.164;2024-03-02T08:48:14;35440.03;;;-140.95;41.63
38054;BME280;23859;50.672;7.164;2024-03-02T08:50:41;35442.03;;;-140.95;42.26
38054;BME280;23859;50.672;7.164;2024-03-02T08:53:07;35345.63;;;-140.95;40.84
38054;BME280;23859;50.672;7.164;2024-03-02T08:55:33;35321.50;;;-140.95;39.82
38054;BME280;23859;50.672;7.164;2024-03-02T08:57:59;35335.56;;;-140.95;39.30
38054;BME280;23859;50.672;7.164;2024-03-02T09:00:25;35233.13;;;-140.95;37.75
38054;BME280;23859;50.672;7.164;2024-03-02T09:02:51;35164.81;;;-140.95;36.97
38054;BME280;23859;50.672;7.164;2024-03-02T09:05:17;35221.06;;;-140.95;37.67
38054;BME280;23859;50.672;7.164;2024-03-02T09:07:43;35198.97;;;-140.95;37.30
38054;BME280;23859;50.672;7.164;2024-03-02T09:10:10;35184.91;;;-140.95;36.96
38054;BME280;23859;50.672;7.164;2024-03-02T09:12:36;35202.97;;;-140.95;37.40
38054;BME280;23859;50.672;7.164;2024-03-02T09:15:03;35148.75;;;-140.95;36.38
38054;BME280;23859;50.672;7.164;2024-03-02T09:17:30;35243.16;;;-140.95;37.03
38054;BME280;23859;50.672;7.164;2024-03-02T09:19:56;35237.13;;;-140.95;37.35
38054;BME280;23859;50.672;7.164;2024-03-02T09:22:22;35325.53;;;-140.95;37.97
38054;BME280;23859;50.672;7.164;2024-03-02T09:24:49;35325.53;;;-140.95;38.19
38054;BME280;23859;50.672;7.164;2024-03-02T09:27:15;35367.72;;;-140.95;38.77
38054;BME280;23859;50.672;7.164;2024-03-02T09:29:41;35245.16;;;-140.95;37.70
38054;BME280;23859;50.672;7.164;2024-03-02T09:32:08;35227.09;;;-140.95;37.35
38054;BME280;23859;50.672;7.164;2024-03-02T09:34:34;35221.06;;;-140.95;36.99
38054;BME280;23859;50.672;7.164;2024-03-02T09:37:00;35225.06;;;-140.95;36.62
38054;BME280;23859;50.672;7.164;2024-03-02T09:39:26;35114.59;;;-140.95;36.02
38054;BME280;23859;50.672;7.164;2024-03-02T09:41:53;35229.09;;;-140.95;35.91
38054;BME280;23859;50.672;7.164;2024-03-02T09:44:19;35227.09;;;-140.95;37.29
38054;BME280;23859;50.672;7.164;2024-03-02T09:46:49;35092.50;;;-140.95;35.67
38054;BME280;23859;50.672;7.164;2024-03-02T09:49:15;35048.31;;;-140.95;34.99
38054;BME280;23859;50.672;7.164;2024-03-02T09:51:47;35148.75;;;-140.95;35.56
38054;BME280;23859;50.672;7.164;2024-03-02T09:54:17;35196.94;;;-140.95;36.90
38054;BME280;23859;50.672;7.164;2024-03-02T09:56:44;35221.06;;;-140.95;37.33
38054;BME280;23859;50.672;7.164;2024-03-02T09:59:10;35219.06;;;-140.95;37.32
38054;BME280;23859;50.672;7.164;2024-03-02T10:01:36;35299.41;;;-140.95;38.66
38054;BME280;23859;50.672;7.164;2024-03-02T10:04:02;35329.53;;;-140.95;39.83
38054;BME280;23859;50.672;7.164;2024-03-02T10:06:28;35263.25;;;-140.95;38.71
38054;BME280;23859;50.672;7.164;2024-03-02T10:08:56;35257.22;;;-140.95;38.05
38054;BME280;23859;50.672;7.164;2024-03-02T10:11:35;35066.38;;;-140.95;35.87
38054;BME280;23859;50.672;7.164;2024-03-02T10:16:40;34959.91;;;-140.95;34.07
38054;BME280;23859;50.672;7.164;2024-03-02T10:19:22;34939.81;;;-140.95;34.13
38054;BME280;23859;50.672;7.164;2024-03-02T10:21:50;35076.44;;;-140.95;35.04
38054;BME280;23859;50.672;7.164;2024-03-02T10:24:21;35000.09;;;-140.95;34.69
38054;BME280;23859;50.672;7.164;2024-03-02T10:26:47;35120.63;;;-140.95;36.93
38054;BME280;23859;50.672;7.164;2024-03-02T10:29:14;35267.25;;;-140.95;37.97
38054;BME280;23859;50.672;7.164;2024-03-02T10:31:41;35190.94;;;-140.95;38.71
38054;BME280;23859;50.672;7.164;2024-03-02T10:34:09;35028.22;;;-140.95;36.52
38054;BME280;23859;50.672;7.164;2024-03-02T10:36:36;34905.69;;;-140.95;33.77
38054;BME280;23859;50.672;7.164;2024-03-02T10:39:05;34722.88;;;-140.95;33.23
38054;BME280;23859;50.672;7.164;2024-03-02T10:41:34;34528.06;;;-140.95;30.59
38054;BME280;23859;50.672;7.164;2024-03-02T10:44:04;34351.31;;;-140.95;29.36
38054;BME280;23859;50.672;7.164;2024-03-02T10:46:32;34214.75;;;-140.95;28.38
38054;BME280;23859;50.672;7.164;2024-03-02T10:48:59;34313.16;;;-140.95;28.62
38054;BME280;23859;50.672;7.164;2024-03-02T10:51:27;34064.13;;;-140.95;27.51
38054;BME280;23859;50.672;7.164;2024-03-02T10:53:58;33853.25;;;-140.95;26.41
38054;BME280;23859;50.672;7.164;2024-03-02T10:56:32;34361.34;;;-140.95;27.60
38054;BME280;23859;50.672;7.164;2024-03-02T10:59:34;34558.19;;;-140.95;30.06
38054;BME280;23859;50.672;7.164;2024-03-02T11:02:03;34925.75;;;-140.95;33.56
38054;BME280;23859;50.672;7.164;2024-03-02T11:04:30;35000.09;;;-140.95;33.60
38054;BME280;23859;50.672;7.164;2024-03-02T11:07:07;35068.38;;;-140.95;35.28
38054;BME280;23859;50.672;7.164;2024-03-02T11:09:35;35176.88;;;-140.95;36.38
38054;BME280;23859;50.672;7.164;2024-03-02T11:12:19;35297.41;;;-140.95;38.46
38054;BME280;23859;50.672;7.164;2024-03-02T11:14:45;35297.41;;;-140.95;39.13
38054;BME280;23859;50.672;7.164;2024-03-02T11:17:13;35373.75;;;-140.95;40.25
38054;BME280;23859;50.672;7.164;2024-03-02T11:19:41;35430.00;;;-140.95;41.87
38054;BME280;23859;50.672;7.164;2024-03-02T11:22:09;35397.84;;;-140.95;41.48
38054;BME280;23859;50.672;7.164;2024-03-02T11:24:36;35419.94;;;-140.95;42.11
38054;BME280;23859;50.672;7.164;2024-03-02T11:27:04;35335.56;;;-140.95;41.23
38054;BME280;23859;50.672;7.164;2024-03-02T11:32:04;35289.38;;;-140.95;39.92
38054;BME280;23859;50.672;7.164;2024-03-02T11:34:31;35283.34;;;-140.95;40.52
38054;BME280;23859;50.672;7.164;2024-03-02T11:36:58;35261.25;;;-140.95;39.91
38054;BME280;23859;50.672;7.164;2024-03-02T11:39:29;35245.16;;;-140.95;39.81
38054;BME280;23859;50.672;7.164;2024-03-02T11:41:58;35229.09;;;-140.95;40.08
38054;BME280;23859;50.672;7.164;2024-03-02T11:44:26;35192.94;;;-140.95;38.77
38054;BME280;23859;50.672;7.164;2024-03-02T11:47:01;35172.84;;;-140.95;38.38
38054;BME280;23859;50.672;7.164;2024-03-02T11:49:45;35158.78;;;-140.95;37.89
38054;BME280;23859;50.672;7.164;2024-03-02T11:52:13;35188.91;;;-140.95;38.53
38054;BME280;23859;50.672;7.164;2024-03-02T11:54:42;35259.22;;;-140.95;39.69
38054;BME280;23859;50.672;7.164;2024-03-02T11:57:18;35285.34;;;-140.95;40.68
38054;BME280;23859;50.672;7.164;2024-03-02T11:59:45;35283.34;;;-140.95;40.28
38054;BME280;23859;50.672;7.164;2024-03-02T12:02:21;35367.72;;;-140.95;41.49
38054;BME280;23859;50.672;7.164;2024-03-02T12:04:49;35343.59;;;-140.95;41.78
38054;BME280;23859;50.672;7.164;2024-03-02T12:07:24;35349.63;;;-140.95;41.90
38054;BME280;23859;50.672;7.164;2024-03-02T12:10:00;35383.78;;;-140.95;42.13
38054;BME280;23859;50.672;7.164;2024-03-02T12:12:29;35311.47;;;-140.95;41.87
38054;BME280;23859;50.672;7.164;2024-03-02T12:14:55;35325.53;;;-140.95;41.07
38054;BME280;23859;50.672;7.164;2024-03-02T12:17:22;35353.66;;;-140.95;41.49
38054;BME280;23859;50.672;7.164;2024-03-02T12:19:49;35333.56;;;-140.95;41.20
38054;BME280;23859;50.672;7.164;2024-03-02T12:22:15;35321.50;;;-140.95;41.19
38054;BME280;23859;50.672;7.164;2024-03-02T12:24:42;35289.38;;;-140.95;41.15
38054;BME280;23859;50.672;7.164;2024-03-02T12:27:11;35265.25;;;-140.95;40.74
38054;BME280;23859;50.672;7.164;2024-03-02T12:29:37;35227.09;;;-140.95;40.80
38054;BME280;23859;50.672;7.164;2024-03-02T12:32:05;35229.09;;;-140.95;39.85
38054;BME280;23859;50.672;7.164;2024-03-02T12:34:31;35217.03;;;-140.95;39.21
38054;BME280;23859;50.672;7.164;2024-03-02T12:36:57;35196.94;;;-140.95;39.02
38054;BME280;23859;50.672;7.164;2024-03-02T12:39:24;35142.72;;;-140.95;38.60
38054;BME280;23859;50.672;7.164;2024-03-02T12:41:50;35092.50;;;-140.95;37.88
38054;BME280;23859;50.672;7.164;2024-03-02T12:44:17;35060.34;;;-140.95;37.33
38054;BME280;23859;50.672;7.164;2024-03-02T12:46:46;34980.00;;;-140.95;36.32
38054;BME280;23859;50.672;7.164;2024-03-02T12:49:14;35046.28;;;-140.95;35.82
38054;BME280;23859;50.672;7.164;2024-03-02T12:51:42;35076.44;;;-140.95;37.15